Time;durP1;ratioP1;P1;durP2;ratioP2;P2;SDS_P1;SDS_P2;PMS_P1;PMS_P2;Temp;Humidity;BMP_temperature;BMP_pressure;BME280_temperature;BME280_humidity;BME280_pressure;Samples;Min_cycle;Max_cycle;Signal;HPM_P1;HPM_P2
2023/06/10 00:01:36;;;;;;;1.90;1.80;;;;;;;23.65;62.25;97718.70;106032;1256;61063;-77
2023/06/10 00:04:04;;;;;;;2.80;2.20;;;;;;;23.64;62.22;97720.25;105860;1251;59624;-78
2023/06/10 00:06:35;;;;;;;2.50;1.70;;;;;;;23.63;62.19;97720.97;105766;1260;72341;-78
2023/06/10 00:09:13;;;;;;;2.70;1.80;;;;;;;23.63;62.28;97712.23;105952;1257;67567;-77
2023/06/10 00:11:42;;;;;;;1.80;1.70;;;;;;;23.62;62.31;97711.73;105876;1253;75620;-77
2023/06/10 00:14:10;;;;;;;2.90;2.20;;;;;;;23.62;62.37;97708.35;105869;1251;60267;-77
2023/06/10 00:16:38;;;;;;;2.20;1.90;;;;;;;23.61;62.31;97710.08;106051;1251;59604;-78
2023/06/10 00:19:07;;;;;;;2.10;1.90;;;;;;;23.61;62.30;97707.22;105990;1251;72020;-77
2023/06/10 00:21:39;;;;;;;2.00;1.80;;;;;;;23.60;62.16;97706.36;105847;1251;66804;-77
2023/06/10 00:24:11;;;;;;;1.90;1.80;;;;;;;23.60;62.30;97703.11;105857;1251;72659;-77
2023/06/10 00:26:40;;;;;;;2.50;2.30;;;;;;;23.59;62.25;97701.02;105820;1253;59736;-77
2023/06/10 00:29:09;;;;;;;1.80;1.60;;;;;;;23.58;62.32;97702.02;106028;1251;59573;-78
2023/06/10 00:31:37;;;;;;;2.10;1.80;;;;;;;23.58;62.25;97702.95;105605;1251;73638;-78
2023/06/10 00:34:07;;;;;;;2.40;1.90;;;;;;;23.59;62.40;97704.02;105938;1259;67612;-78
2023/06/10 00:36:35;;;;;;;1.70;1.60;;;;;;;23.58;62.22;97706.52;105781;1260;72190;-78
2023/06/10 00:39:07;;;;;;;1.80;1.70;;;;;;;23.57;62.39;97703.65;105999;1251;59749;-76
2023/06/10 00:41:36;;;;;;;2.20;2.00;;;;;;;23.56;62.34;97705.59;105775;1251;60024;-78
2023/06/10 00:44:04;;;;;;;2.20;2.00;;;;;;;23.56;62.32;97704.70;105899;1251;71903;-77
2023/06/10 00:46:33;;;;;;;2.10;1.90;;;;;;;23.56;62.40;97708.59;105793;1258;69031;-77
2023/06/10 00:49:01;;;;;;;2.70;2.30;;;;;;;23.56;62.35;97706.98;105894;1259;71944;-77
2023/06/10 00:51:30;;;;;;;1.90;1.70;;;;;;;23.55;62.38;97702.31;105943;1251;60083;-77
2023/06/10 00:53:58;;;;;;;2.10;1.90;;;;;;;23.55;62.32;97698.51;105820;1251;59929;-78
2023/06/10 00:56:26;;;;;;;1.80;1.70;;;;;;;23.54;62.34;97695.09;105835;1251;72133;-78
2023/06/10 00:58:55;;;;;;;1.80;1.70;;;;;;;23.54;62.39;97694.20;105891;1251;69425;-78
2023/06/10 01:01:23;;;;;;;2.00;1.80;;;;;;;23.54;62.37;97692.42;105872;1259;71443;-79
2023/06/10 01:03:52;;;;;;;2.50;2.00;;;;;;;23.53;62.27;97695.42;105896;1259;59688;-77
2023/06/10 01:06:23;;;;;;;2.20;1.70;;;;;;;23.53;62.38;97698.05;106076;1251;59586;-77
2023/06/10 01:09:35;;;;;;;2.90;1.50;;;;;;;23.53;62.51;97699.14;106022;1251;73258;-77
2023/06/10 01:12:12;;;;;;;1.80;1.70;;;;;;;23.53;62.37;97702.42;105832;1251;68995;-78
2023/06/10 01:14:44;;;;;;;2.00;1.80;;;;;;;23.53;62.43;97705.04;105958;1251;72697;-78
2023/06/10 01:17:12;;;;;;;2.00;1.80;;;;;;;23.52;62.39;97701.25;105906;1251;60332;-78
2023/06/10 01:19:43;;;;;;;2.20;1.70;;;;;;;23.53;62.47;97700.82;105959;1251;60142;-79
2023/06/10 01:22:15;;;;;;;2.40;1.90;;;;;;;23.52;62.46;97701.27;105923;1251;72000;-77
2023/06/10 01:24:44;;;;;;;1.90;1.70;;;;;;;23.52;62.41;97699.98;105931;1251;68995;-78
2023/06/10 01:27:14;;;;;;;2.20;1.70;;;;;;;23.52;62.50;97700.35;105915;1260;71557;-77
2023/06/10 01:29:59;;;;;;;2.00;1.60;;;;;;;23.52;62.29;97698.54;105841;1251;60687;-77
2023/06/10 01:32:32;;;;;;;1.70;1.60;;;;;;;23.51;62.33;97692.25;105996;1251;59712;-77
2023/06/10 01:35:02;;;;;;;1.90;1.80;;;;;;;23.51;62.39;97693.69;106006;1251;73704;-78
2023/06/10 01:37:30;;;;;;;2.00;1.80;;;;;;;23.51;62.30;97695.00;106065;1257;67552;-77
2023/06/10 01:40:00;;;;;;;1.90;1.70;;;;;;;23.51;62.30;97701.79;105886;1252;72854;-77
2023/06/10 01:42:27;;;;;;;2.00;1.80;;;;;;;23.51;62.26;97700.13;105885;1256;59681;-77
2023/06/10 01:44:57;;;;;;;1.90;1.80;;;;;;;23.50;62.37;97699.30;106016;1251;60127;-76
2023/06/10 01:47:26;;;;;;;1.50;1.40;;;;;;;23.50;62.31;97698.40;106096;1251;72533;-77
2023/06/10 01:49:54;;;;;;;1.90;1.80;;;;;;;23.50;62.31;97695.49;105884;1256;68322;-77
2023/06/10 01:52:22;;;;;;;1.60;1.50;;;;;;;23.51;62.33;97697.80;105799;1251;73370;-77
2023/06/10 01:54:50;;;;;;;1.80;1.70;;;;;;;23.50;62.25;97699.55;108042;1257;61189;-78
2023/06/10 01:57:18;;;;;;;2.50;2.00;;;;;;;23.50;62.20;97692.64;107334;1250;60776;-77
2023/06/10 01:59:46;;;;;;;1.70;1.60;;;;;;;23.50;62.41;97691.27;107205;1251;74477;-78
2023/06/10 02:02:15;;;;;;;2.10;1.90;;;;;;;23.51;62.34;97697.44;107099;1251;69021;-75
2023/06/10 02:04:44;;;;;;;1.90;1.80;;;;;;;23.51;62.25;97698.28;106809;1254;73741;-75
2023/06/10 02:07:12;;;;;;;2.20;1.70;;;;;;;23.51;62.17;97700.27;106506;1251;60755;-77
2023/06/10 02:09:40;;;;;;;2.10;1.90;;;;;;;23.52;62.26;97701.48;106167;1251;60525;-77
2023/06/10 02:12:10;;;;;;;2.10;2.00;;;;;;;23.52;62.31;97702.00;107215;1250;71145;-77
2023/06/10 02:14:38;;;;;;;3.50;2.20;;;;;;;23.52;62.16;97700.15;109326;1251;67129;-78
2023/06/10 02:17:06;;;;;;;2.20;2.00;;;;;;;23.52;62.13;97699.05;109503;1251;71964;-78
2023/06/10 02:19:36;;;;;;;1.90;1.80;;;;;;;23.53;62.12;97697.77;108274;1251;59647;-77
2023/06/10 02:22:04;;;;;;;1.90;1.70;;;;;;;23.54;62.19;97700.95;106459;1251;59750;-78
2023/06/10 02:24:32;;;;;;;1.90;1.80;;;;;;;23.55;62.05;97696.10;106154;1257;73184;-77
2023/06/10 02:27:01;;;;;;;2.20;2.10;;;;;;;23.56;62.06;97695.44;106134;1257;70994;-78
2023/06/10 02:29:29;;;;;;;1.80;1.70;;;;;;;23.56;62.04;97696.15;106072;1251;71950;-78
2023/06/10 02:31:57;;;;;;;1.70;1.60;;;;;;;23.56;61.94;97696.49;105826;1254;59641;-78
2023/06/10 02:34:26;;;;;;;1.60;1.50;;;;;;;23.56;62.02;97695.23;105869;1251;59852;-77
2023/06/10 02:36:55;;;;;;;1.80;1.60;;;;;;;23.56;61.90;97695.27;105850;1251;73802;-78
2023/06/10 02:39:24;;;;;;;1.50;1.40;;;;;;;23.55;61.91;97696.45;105924;1251;69240;-77
2023/06/10 02:41:55;;;;;;;1.80;1.70;;;;;;;23.55;61.94;97704.66;105903;1256;72723;-79
2023/06/10 02:44:23;;;;;;;2.20;2.00;;;;;;;23.55;61.84;97700.35;105866;1251;60955;-78
2023/06/10 02:46:51;;;;;;;1.90;1.70;;;;;;;23.54;61.93;97704.70;105870;1251;60150;-77
2023/06/10 02:49:20;;;;;;;2.60;1.40;;;;;;;23.54;61.97;97705.03;105871;1251;71767;-77
2023/06/10 02:51:53;;;;;;;1.80;1.70;;;;;;;23.53;61.92;97701.00;105965;1251;68028;-77
2023/06/10 02:54:22;;;;;;;1.90;1.80;;;;;;;23.53;61.96;97701.20;105803;1253;71323;-78
2023/06/10 02:56:51;;;;;;;1.90;1.70;;;;;;;23.52;62.00;97701.81;105864;1254;60402;-78
2023/06/10 02:59:23;;;;;;;1.70;1.60;;;;;;;23.52;62.17;97697.14;106060;1251;60786;-77
2023/06/10 03:01:52;;;;;;;2.30;1.90;;;;;;;23.51;61.99;97708.14;105867;1251;73922;-77
2023/06/10 03:04:23;;;;;;;1.90;1.60;;;;;;;23.51;62.05;97706.20;106087;1251;68506;-78
2023/06/10 03:06:57;;;;;;;1.60;1.50;;;;;;;23.50;62.12;97711.02;105885;1257;72971;-77
2023/06/10 03:09:29;;;;;;;1.90;1.70;;;;;;;23.49;62.06;97712.23;106022;1252;61184;-77
2023/06/10 03:11:58;;;;;;;1.70;1.60;;;;;;;23.49;61.91;97710.29;106018;1251;60701;-78
2023/06/10 03:14:26;;;;;;;1.60;1.50;;;;;;;23.49;62.04;97709.58;105981;1251;73362;-78
2023/06/10 03:16:55;;;;;;;2.00;1.80;;;;;;;23.48;62.05;97712.09;105844;1251;68171;-78
2023/06/10 03:19:23;;;;;;;1.70;1.60;;;;;;;23.48;62.04;97711.84;105959;1252;73980;-77
2023/06/10 03:22:22;;;;;;;1.70;1.60;;;;;;;23.48;62.12;97716.44;106013;1251;60763;-77
2023/06/10 03:25:00;;;;;;;1.70;1.60;;;;;;;23.48;61.99;97719.60;105869;1251;60425;-78
2023/06/10 03:27:29;;;;;;;2.20;1.70;;;;;;;23.47;62.12;97722.01;105999;1257;74546;-78
2023/06/10 03:29:59;;;;;;;1.80;1.70;;;;;;;23.46;62.12;97729.42;105802;1251;69292;-78
2023/06/10 03:32:27;;;;;;;1.70;1.60;;;;;;;23.46;62.07;97729.84;106028;1251;72693;-78
2023/06/10 03:34:57;;;;;;;1.40;1.30;;;;;;;23.46;62.05;97731.11;105941;1250;60521;-78
2023/06/10 03:37:27;;;;;;;1.70;1.60;;;;;;;23.46;62.08;97730.61;106227;1251;60534;-78
2023/06/10 03:39:55;;;;;;;1.80;1.70;;;;;;;23.45;62.13;97731.91;105963;1256;74512;-77
2023/06/10 03:42:24;;;;;;;2.10;2.00;;;;;;;23.44;62.09;97733.48;106221;1251;69029;-77
2023/06/10 03:44:52;;;;;;;2.20;1.70;;;;;;;23.44;62.14;97736.93;105981;1251;73454;-78
2023/06/10 03:47:21;;;;;;;1.60;1.50;;;;;;;23.43;62.04;97734.69;105969;1251;60554;-78
2023/06/10 03:49:50;;;;;;;2.10;1.90;;;;;;;23.44;62.05;97737.86;105965;1253;60447;-78
2023/06/10 03:52:18;;;;;;;2.00;1.60;;;;;;;23.44;62.06;97738.45;106150;1256;73956;-78
2023/06/10 03:54:46;;;;;;;1.70;1.60;;;;;;;23.44;62.05;97736.42;105909;1253;66567;-77
2023/06/10 03:57:14;;;;;;;1.70;1.60;;;;;;;23.43;62.12;97736.89;106069;1251;72154;-77
2023/06/10 03:59:42;;;;;;;1.60;1.50;;;;;;;23.43;61.89;97737.31;106056;1254;60290;-77
2023/06/10 04:02:11;;;;;;;1.90;1.70;;;;;;;23.43;62.02;97738.57;105934;1251;60492;-77
2023/06/10 04:04:39;;;;;;;1.50;1.40;;;;;;;23.43;62.03;97734.19;105845;1259;73639;-77
2023/06/10 04:07:08;;;;;;;1.60;1.50;;;;;;;23.43;62.00;97732.98;106063;1252;67764;-78
2023/06/10 04:09:37;;;;;;;1.90;1.70;;;;;;;23.43;61.94;97733.84;106000;1252;71472;-78
2023/06/10 04:12:10;;;;;;;2.20;2.00;;;;;;;23.43;61.91;97732.02;105889;1259;60649;-78
2023/06/10 04:14:38;;;;;;;2.20;1.40;;;;;;;23.42;62.04;97728.45;105847;1250;60452;-78
2023/06/10 04:17:08;;;;;;;1.70;1.60;;;;;;;23.42;61.93;97728.66;106095;1251;71796;-78
2023/06/10 04:19:37;;;;;;;1.70;1.60;;;;;;;23.42;61.98;97729.41;105839;1259;66710;-78
2023/06/10 04:22:05;;;;;;;2.30;1.70;;;;;;;23.42;61.91;97729.46;106080;1253;72165;-78
2023/06/10 04:24:34;;;;;;;2.30;1.90;;;;;;;23.42;62.04;97730.93;106204;1255;60533;-77
2023/06/10 04:27:03;;;;;;;2.00;1.60;;;;;;;23.41;62.03;97735.86;106257;1251;60430;-78
2023/06/10 04:29:31;;;;;;;1.60;1.50;;;;;;;23.41;62.13;97738.05;106073;1251;72622;-78
2023/06/10 04:32:01;;;;;;;1.60;1.50;;;;;;;23.42;61.98;97737.85;106605;1251;71224;-77
2023/06/10 04:34:32;;;;;;;2.20;2.00;;;;;;;23.42;61.98;97736.20;108083;1253;73217;-78
2023/06/10 04:37:00;;;;;;;2.10;1.90;;;;;;;23.42;61.89;97732.83;106590;1250;60526;-78
2023/06/10 04:39:29;;;;;;;1.60;1.50;;;;;;;23.43;61.97;97731.36;106204;1251;60809;-78
2023/06/10 04:41:57;;;;;;;1.80;1.70;;;;;;;23.42;62.04;97729.88;106367;1256;73846;-77
2023/06/10 04:44:26;;;;;;;1.50;1.40;;;;;;;23.43;61.97;97732.91;106293;1252;69458;-79
2023/06/10 04:46:55;;;;;;;1.70;1.60;;;;;;;23.43;62.04;97734.94;106237;1251;71433;-78
2023/06/10 04:49:23;;;;;;;1.70;1.60;;;;;;;23.43;61.88;97735.15;106424;1251;60744;-77
2023/06/10 04:51:51;;;;;;;1.70;1.60;;;;;;;23.43;61.93;97737.30;106578;1251;60508;-77
2023/06/10 04:54:20;;;;;;;2.40;2.00;;;;;;;23.43;61.77;97740.55;106014;1251;74000;-78
2023/06/10 04:56:48;;;;;;;1.70;1.60;;;;;;;23.44;61.84;97738.86;106021;1251;68817;-78
2023/06/10 04:59:16;;;;;;;1.80;1.50;;;;;;;23.44;61.89;97735.75;106280;1255;72810;-78
2023/06/10 05:01:44;;;;;;;1.80;1.70;;;;;;;23.44;61.79;97738.33;106353;1251;60433;-77
2023/06/10 05:04:12;;;;;;;1.80;1.70;;;;;;;23.44;61.75;97736.09;105957;1251;60584;-78
2023/06/10 05:06:40;;;;;;;2.00;1.90;;;;;;;23.44;61.79;97736.80;106184;1255;74404;-78
2023/06/10 05:09:09;;;;;;;1.80;1.70;;;;;;;23.43;61.80;97737.81;106141;1254;67712;-78
2023/06/10 05:11:38;;;;;;;1.80;1.60;;;;;;;23.43;61.73;97738.15;106302;1251;71582;-77
2023/06/10 05:14:06;;;;;;;2.10;1.90;;;;;;;23.43;61.72;97735.50;105989;1251;60559;-78
2023/06/10 05:16:34;;;;;;;2.00;1.80;;;;;;;23.42;61.71;97734.46;106076;1251;62322;-81
2023/06/10 05:19:03;;;;;;;1.90;1.70;;;;;;;23.43;61.83;97737.68;106065;1251;75429;-77
2023/06/10 05:21:34;;;;;;;1.90;1.80;;;;;;;23.43;61.68;97733.17;106049;1251;68920;-78
2023/06/10 05:24:04;;;;;;;2.00;1.90;;;;;;;23.43;61.71;97737.14;105949;1252;71580;-77
2023/06/10 05:26:33;;;;;;;1.90;1.80;;;;;;;23.42;61.74;97740.00;106153;1254;62302;-77
2023/06/10 05:29:01;;;;;;;2.20;2.00;;;;;;;23.42;61.76;97742.32;105999;1256;60406;-77
2023/06/10 05:31:29;;;;;;;1.80;1.70;;;;;;;23.42;61.74;97742.56;106087;1251;75146;-78
2023/06/10 05:33:58;;;;;;;2.40;2.20;;;;;;;23.42;61.79;97747.25;106095;1251;67785;-78
2023/06/10 05:36:26;;;;;;;2.40;2.20;;;;;;;23.42;61.82;97742.08;106037;1251;73301;-79
2023/06/10 05:38:54;;;;;;;2.30;2.10;;;;;;;23.42;61.76;97747.29;106154;1251;60525;-79
2023/06/10 05:41:22;;;;;;;3.10;2.10;;;;;;;23.42;61.76;97744.20;106236;1251;60447;-78
2023/06/10 05:43:50;;;;;;;2.60;2.40;;;;;;;23.42;61.68;97747.88;106250;1256;74522;-78
2023/06/10 05:46:19;;;;;;;2.40;2.20;;;;;;;23.42;61.74;97749.35;106433;1251;68918;-78
2023/06/10 05:48:47;;;;;;;2.60;2.40;;;;;;;23.42;61.75;97748.98;107328;1251;71221;-79
2023/06/10 05:51:15;;;;;;;2.50;2.20;;;;;;;23.42;61.73;97750.41;109395;1251;61264;-79
2023/06/10 05:53:43;;;;;;;2.70;2.50;;;;;;;23.42;61.78;97749.69;109406;1251;59882;-79
2023/06/10 05:56:12;;;;;;;3.20;2.90;;;;;;;23.43;61.89;97752.06;106571;1251;73399;-78
2023/06/10 05:58:40;;;;;;;3.00;2.80;;;;;;;23.44;61.84;97753.45;106507;1252;68009;-77
2023/06/10 06:01:08;;;;;;;2.70;2.40;;;;;;;23.45;61.78;97754.77;106240;1256;71397;-78
2023/06/10 06:03:36;;;;;;;3.20;3.00;;;;;;;23.45;61.64;97753.33;106192;1257;60542;-79
2023/06/10 06:06:05;;;;;;;3.10;2.80;;;;;;;23.47;61.54;97754.80;106853;1251;61112;-79
2023/06/10 06:08:33;;;;;;;4.00;3.30;;;;;;;23.46;61.59;97753.55;106207;1251;76345;-78
2023/06/10 06:11:01;;;;;;;3.50;3.20;;;;;;;23.46;61.62;97753.37;106105;1251;67903;-79
2023/06/10 06:13:29;;;;;;;3.80;3.50;;;;;;;23.47;61.52;97752.41;106143;1251;74170;-79
2023/06/10 06:15:57;;;;;;;3.50;3.20;;;;;;;23.47;61.66;97751.32;106189;1251;60338;-78
2023/06/10 06:18:25;;;;;;;4.40;4.00;;;;;;;23.46;61.47;97751.18;106056;1251;60677;-78
2023/06/10 06:20:53;;;;;;;4.20;3.80;;;;;;;23.46;61.61;97751.23;106031;1251;72068;-80
2023/06/10 06:23:22;;;;;;;4.80;3.90;;;;;;;23.46;61.57;97751.18;106017;1251;69083;-78
2023/06/10 06:25:50;;;;;;;4.60;4.20;;;;;;;23.45;61.57;97755.43;106088;1256;73229;-79
2023/06/10 06:28:20;;;;;;;4.00;3.70;;;;;;;23.45;61.64;97754.72;106125;1251;60447;-79
2023/06/10 06:30:48;;;;;;;3.90;3.60;;;;;;;23.45;61.51;97752.95;105834;1252;60430;-79
2023/06/10 06:33:16;;;;;;;4.50;4.10;;;;;;;23.45;61.58;97755.48;106328;1250;73406;-78
2023/06/10 06:35:45;;;;;;;4.80;4.40;;;;;;;23.44;61.55;97757.98;106012;1251;67939;-78
2023/06/10 06:38:13;;;;;;;4.60;4.20;;;;;;;23.44;61.53;97756.11;106226;1251;72805;-79
2023/06/10 06:40:42;;;;;;;5.00;4.60;;;;;;;23.44;61.56;97754.38;106178;1251;60447;-78
2023/06/10 06:43:10;;;;;;;5.00;4.60;;;;;;;23.44;61.62;97756.75;106282;1251;60396;-78
2023/06/10 06:46:17;;;;;;;5.30;4.90;;;;;;;23.44;61.76;97761.34;106218;1252;73987;-78
2023/06/10 06:48:46;;;;;;;6.10;5.60;;;;;;;23.44;61.77;97761.34;106322;1251;70602;-79
2023/06/10 06:51:14;;;;;;;6.60;5.30;;;;;;;23.44;61.65;97758.77;106052;1259;73358;-79
2023/06/10 06:53:44;;;;;;;6.50;5.90;;;;;;;23.43;61.56;97760.45;106506;1251;60674;-80
2023/06/10 06:56:13;;;;;;;6.00;5.50;;;;;;;23.43;61.52;97761.00;106421;1251;60405;-78
2023/06/10 06:58:41;;;;;;;5.80;5.30;;;;;;;23.44;61.58;97766.45;106109;1251;74521;-80
2023/06/10 07:01:09;;;;;;;5.70;5.20;;;;;;;23.44;61.60;97764.42;106106;1251;69550;-80
2023/06/10 07:03:37;;;;;;;6.70;6.10;;;;;;;23.44;61.70;97764.97;106378;1257;72777;-79
2023/06/10 07:06:05;;;;;;;6.20;5.60;;;;;;;23.44;61.50;97763.91;106167;1255;60386;-79
2023/06/10 07:08:34;;;;;;;7.10;6.50;;;;;;;23.44;61.61;97763.84;106144;1257;62339;-78
2023/06/10 07:11:02;;;;;;;6.30;5.80;;;;;;;23.44;61.68;97762.40;106675;1251;74048;-77
2023/06/10 07:13:31;;;;;;;7.20;6.60;;;;;;;23.44;61.57;97764.77;107832;1251;68297;-78
2023/06/10 07:16:00;;;;;;;6.70;6.10;;;;;;;23.44;61.53;97766.70;107126;1251;71521;-77
2023/06/10 07:18:29;;;;;;;6.80;6.30;;;;;;;23.44;61.61;97767.61;106206;1260;60626;-80
2023/06/10 07:20:57;;;;;;;7.10;6.50;;;;;;;23.45;61.59;97771.04;106078;1250;60302;-78
2023/06/10 07:23:25;;;;;;;7.70;7.00;;;;;;;23.45;61.56;97768.96;106141;1251;74426;-78
2023/06/10 07:25:53;;;;;;;7.10;6.50;;;;;;;23.46;61.57;97770.23;106123;1257;67314;-77
2023/06/10 07:28:21;;;;;;;7.20;6.60;;;;;;;23.46;61.53;97772.59;106239;1257;72287;-80
2023/06/10 07:30:50;;;;;;;8.30;7.60;;;;;;;23.47;61.63;97773.07;106642;1251;60504;-79
2023/06/10 07:33:19;;;;;;;8.70;7.90;;;;;;;23.45;61.62;97769.18;106628;1251;60447;-80
2023/06/10 07:35:47;;;;;;;7.50;6.90;;;;;;;23.46;61.56;97770.58;106309;1256;74279;-79
2023/06/10 07:38:17;;;;;;;8.80;8.00;;;;;;;23.45;61.63;97775.01;106542;1259;67636;-83
2023/06/10 07:40:45;;;;;;;8.60;7.90;;;;;;;23.47;61.57;97778.38;107478;1253;73353;-83
2023/06/10 07:43:13;;;;;;;8.10;7.40;;;;;;;23.47;61.69;97778.38;106587;1252;61686;-81
2023/06/10 07:45:41;;;;;;;9.20;8.40;;;;;;;23.47;61.63;97779.43;106676;1259;60469;-82
2023/06/10 07:48:09;;;;;;;9.00;8.30;;;;;;;23.47;61.54;97783.77;106763;1252;73803;-79
2023/06/10 07:50:37;;;;;;;9.40;8.60;;;;;;;23.48;61.47;97787.27;107510;1254;67834;-76
2023/06/10 07:53:06;;;;;;;9.20;8.40;;;;;;;23.48;61.57;97787.27;109311;1252;71665;-80
2023/06/10 07:55:34;;;;;;;9.20;8.40;;;;;;;23.49;61.58;97787.36;109255;1251;58973;-84
2023/06/10 07:58:02;;;;;;;10.30;9.40;;;;;;;23.50;61.70;97788.72;109116;1251;60462;-84
2023/06/10 08:00:31;;;;;;;9.20;7.70;;;;;;;23.51;61.69;97788.23;108768;1251;73350;-81
2023/06/10 08:03:00;;;;;;;9.80;8.80;;;;;;;23.52;61.59;97789.49;107332;1251;68372;-82
2023/06/10 08:05:29;;;;;;;10.00;9.20;;;;;;;23.54;61.63;97796.02;106600;1254;71407;-80
2023/06/10 08:07:57;;;;;;;10.00;9.20;;;;;;;23.55;61.62;97796.49;106773;1259;60546;-83
2023/06/10 08:10:28;;;;;;;12.00;11.00;;;;;;;23.56;61.53;97799.80;106839;1254;60227;-82
2023/06/10 08:12:57;;;;;;;11.70;10.70;;;;;;;23.56;61.57;97797.00;107463;1251;73963;-85
2023/06/10 08:15:26;;;;;;;11.10;10.10;;;;;;;23.57;61.43;97795.07;107132;1251;67431;-83
2023/06/10 08:17:56;;;;;;;11.20;10.30;;;;;;;23.58;61.42;97793.34;106716;1257;74859;-79
2023/06/10 08:20:24;;;;;;;11.50;10.50;;;;;;;23.58;61.40;97796.95;106294;1251;60549;-80
2023/06/10 08:22:54;;;;;;;11.70;10.70;;;;;;;23.58;61.40;97798.44;106183;1251;60381;-79
2023/06/10 08:25:22;;;;;;;11.80;10.80;;;;;;;23.58;61.54;97802.66;106409;1251;73297;-78
2023/06/10 08:27:51;;;;;;;11.70;10.70;;;;;;;23.58;61.41;97804.27;106340;1251;71122;-77
2023/06/10 08:30:20;;;;;;;11.80;10.70;;;;;;;23.58;61.48;97805.58;106668;1256;72720;-79
2023/06/10 08:32:48;;;;;;;11.90;10.80;;;;;;;23.58;61.58;97806.50;106467;1251;60412;-79
2023/06/10 08:35:16;;;;;;;12.30;11.20;;;;;;;23.57;61.45;97805.14;106392;1259;62273;-77
2023/06/10 08:37:44;;;;;;;12.00;10.90;;;;;;;23.56;61.51;97810.84;106441;1250;73119;-78
2023/06/10 08:40:12;;;;;;;12.20;11.10;;;;;;;23.57;61.52;97809.36;106323;1260;71000;-79
2023/06/10 08:42:48;;;;;;;12.80;11.70;;;;;;;23.56;61.70;97806.88;106589;1255;71029;-79
2023/06/10 08:45:17;;;;;;;13.30;12.10;;;;;;;23.56;61.59;97807.48;106228;1251;60376;-78
2023/06/10 08:47:46;;;;;;;13.20;11.90;;;;;;;23.55;61.50;97804.80;106496;1251;60524;-78
2023/06/10 08:50:14;;;;;;;13.70;12.30;;;;;;;23.54;61.52;97803.67;106738;1251;72774;-78
2023/06/10 08:52:43;;;;;;;12.70;11.50;;;;;;;23.55;61.53;97805.06;106356;1258;67948;-78
2023/06/10 08:55:15;;;;;;;12.40;11.30;;;;;;;23.54;61.61;97805.67;106126;1257;73457;-78
2023/06/10 08:57:44;;;;;;;12.90;11.80;;;;;;;23.54;61.65;97807.38;106467;1255;60405;-79
2023/06/10 09:00:13;;;;;;;12.90;11.70;;;;;;;23.53;61.62;97806.52;106565;1256;60438;-78
2023/06/10 09:02:41;;;;;;;12.00;11.00;;;;;;;23.53;61.57;97801.77;106972;1251;74077;-78
2023/06/10 09:05:09;;;;;;;13.20;12.10;;;;;;;23.54;61.68;97801.00;106325;1251;71119;-78
2023/06/10 09:07:38;;;;;;;13.10;11.90;;;;;;;23.53;61.64;97797.30;106391;1251;71716;-79
2023/06/10 09:10:07;;;;;;;14.10;12.80;;;;;;;23.53;61.62;97799.45;106276;1251;60473;-79
2023/06/10 09:12:37;;;;;;;13.00;11.80;;;;;;;23.53;61.55;97796.92;106680;1254;60489;-79
2023/06/10 09:15:06;;;;;;;13.50;12.30;;;;;;;23.52;61.70;97797.55;106454;1258;73067;-78
2023/06/10 09:17:39;;;;;;;13.20;12.00;;;;;;;23.52;61.78;97797.61;106427;1252;67491;-78
2023/06/10 09:20:08;;;;;;;14.50;13.20;;;;;;;23.52;61.81;97795.56;106587;1253;72632;-79
2023/06/10 09:22:38;;;;;;;11.70;10.80;;;;;;;23.52;61.83;97793.74;109308;1252;59080;-79
2023/06/10 09:25:10;;;;;;;13.70;12.40;;;;;;;23.52;61.82;97788.98;109277;1253;59336;-80
2023/06/10 09:27:53;;;;;;;14.60;13.30;;;;;;;23.53;61.81;97789.79;106829;1254;73010;-81
2023/06/10 09:30:27;;;;;;;13.90;12.50;;;;;;;23.54;61.71;97789.11;106608;1253;67395;-80
2023/06/10 09:32:57;;;;;;;14.30;13.00;;;;;;;23.54;61.77;97790.17;106740;1254;72722;-79
2023/06/10 09:35:27;;;;;;;12.60;11.50;;;;;;;23.54;61.68;97790.30;106088;1253;60989;-79
2023/06/10 09:37:57;;;;;;;12.70;11.50;;;;;;;23.55;61.73;97793.17;105886;1256;60381;-78
2023/06/10 09:40:25;;;;;;;14.20;12.90;;;;;;;23.55;61.77;97793.00;106136;1253;73021;-79
2023/06/10 09:43:00;;;;;;;13.10;12.00;;;;;;;23.55;61.79;97787.52;106254;1254;68638;-79
2023/06/10 09:45:32;;;;;;;14.10;12.90;;;;;;;23.54;61.74;97785.15;106347;1259;71591;-78
2023/06/10 09:48:00;;;;;;;14.40;13.10;;;;;;;23.54;61.79;97782.99;107214;1254;60382;-79
2023/06/10 09:50:33;;;;;;;14.00;12.80;;;;;;;23.54;61.74;97782.11;108092;1252;59278;-79
2023/06/10 09:53:03;;;;;;;14.90;13.50;;;;;;;23.55;61.73;97784.36;107010;1257;74141;-80
2023/06/10 09:55:33;;;;;;;13.50;12.50;;;;;;;23.55;61.71;97777.05;106331;1257;68273;-78
2023/06/10 09:58:01;;;;;;;13.90;12.70;;;;;;;23.56;61.71;97778.04;106433;1254;72835;-78
2023/06/10 10:00:54;;;;;;;14.10;12.90;;;;;;;23.55;61.82;97775.38;106342;1259;60416;-78
2023/06/10 10:03:23;;;;;;;13.80;12.60;;;;;;;23.56;61.69;97774.02;106596;1258;60532;-79
2023/06/10 10:05:57;;;;;;;14.60;13.30;;;;;;;23.56;61.74;97771.13;105940;1263;73076;-78
2023/06/10 10:08:26;;;;;;;14.50;13.20;;;;;;;23.55;61.68;97765.89;105748;1255;68536;-80
2023/06/10 10:10:56;;;;;;;14.20;12.90;;;;;;;23.55;61.63;97766.61;106098;1258;73185;-78
2023/06/10 10:13:24;;;;;;;14.20;13.00;;;;;;;23.55;61.68;97766.05;105886;1261;60741;-77
2023/06/10 10:15:52;;;;;;;14.10;12.90;;;;;;;23.55;61.66;97762.60;106039;1262;60358;-79
2023/06/10 10:18:22;;;;;;;13.60;12.40;;;;;;;23.55;61.67;97757.91;105916;1254;72650;-78
2023/06/10 10:20:52;;;;;;;14.10;12.80;;;;;;;23.55;61.67;97757.70;106008;1259;67596;-79
2023/06/10 10:23:24;;;;;;;13.90;12.60;;;;;;;23.55;61.64;97755.00;105942;1254;71460;-79
2023/06/10 10:25:54;;;;;;;14.30;13.10;;;;;;;23.54;61.80;97751.80;105910;1255;60463;-80
2023/06/10 10:28:26;;;;;;;13.80;12.60;;;;;;;23.54;61.70;97753.86;106020;1254;60414;-82
2023/06/10 10:30:54;;;;;;;13.90;12.70;;;;;;;23.53;61.73;97751.55;106672;1259;73959;-80
2023/06/10 10:33:43;;;;;;;14.40;13.10;;;;;;;23.53;61.64;97747.04;105945;1261;67387;-80
2023/06/10 10:36:11;;;;;;;13.10;12.00;;;;;;;23.53;61.79;97750.53;106526;1260;74559;-78
2023/06/10 10:38:41;;;;;;;14.20;13.00;;;;;;;23.53;61.79;97747.92;106500;1257;60748;-78
2023/06/10 10:41:10;;;;;;;13.10;12.00;;;;;;;23.53;61.83;97746.86;106224;1252;60866;-78
2023/06/10 10:43:38;;;;;;;13.00;11.90;;;;;;;23.52;61.82;97744.55;106228;1252;74256;-79
2023/06/10 10:46:17;;;;;;;14.70;13.50;;;;;;;23.52;61.85;97738.39;106274;1260;67884;-79
2023/06/10 10:48:45;;;;;;;14.00;12.60;;;;;;;23.52;61.75;97734.04;106395;1251;73300;-79
2023/06/10 10:51:13;;;;;;;13.40;12.20;;;;;;;23.52;61.87;97728.14;106535;1251;62912;-80
2023/06/10 10:53:44;;;;;;;12.90;11.80;;;;;;;23.52;61.77;97719.79;106004;1259;219519;-78
2023/06/10 10:56:14;;;;;;;13.40;12.10;;;;;;;23.52;61.87;97717.23;106599;1258;73352;-80
2023/06/10 10:58:42;;;;;;;13.00;11.90;;;;;;;23.52;61.73;97716.84;106327;1251;69509;-79
2023/06/10 11:01:12;;;;;;;13.80;12.60;;;;;;;23.52;61.72;97713.00;106518;1251;74048;-79
2023/06/10 11:03:47;;;;;;;14.60;13.30;;;;;;;23.52;61.79;97710.09;106347;1257;60462;-78
2023/06/10 11:06:17;;;;;;;13.60;12.50;;;;;;;23.52;61.92;97709.16;106243;1257;60301;-79
2023/06/10 11:08:47;;;;;;;13.50;12.40;;;;;;;23.52;61.78;97706.76;106401;1251;74003;-80
2023/06/10 11:11:23;;;;;;;13.40;12.20;;;;;;;23.52;61.78;97705.50;106255;1259;67566;-78
2023/06/10 11:14:01;;;;;;;12.50;11.40;;;;;;;23.51;61.79;97701.15;106507;1254;72817;-78
2023/06/10 11:16:30;;;;;;;13.40;11.90;;;;;;;23.52;61.85;97699.13;106410;1255;60392;-79
2023/06/10 11:18:58;;;;;;;13.50;12.40;;;;;;;23.52;61.71;97698.74;106307;1251;60536;-78
2023/06/10 11:21:26;;;;;;;13.30;12.20;;;;;;;23.52;61.62;97696.42;106629;1251;71771;-80
2023/06/10 11:23:58;;;;;;;12.70;11.60;;;;;;;23.53;61.71;97691.96;106295;1251;67801;-80
2023/06/10 11:26:33;;;;;;;13.00;11.90;;;;;;;23.54;61.66;97688.08;106931;1251;72015;-78
2023/06/10 11:29:04;;;;;;;12.90;11.70;;;;;;;23.54;61.75;97690.62;106602;1251;60559;-78
2023/06/10 11:31:33;;;;;;;13.10;11.90;;;;;;;23.54;61.74;97690.41;106134;1257;60620;-78